Dundee, Oregon
Current Conditions -  °F | °C
As of 1:53 AM on Thursday 18 Dec 2014 (Local Time) from KMMV Reporting Station
Overcast Overcast  
Wind Chill: 46°   Ceiling: 7000
Heat Index: 46°   Visibility: 10mi
Dew Point: 44°   Wind: 3mph
Humidity: 93%   Direction: 80°E
Pressure: 29.97"   Gusts: NA
Location:  45.28°N, 123.01°W
Report Text: KMMV 180953Z AUTO 08003KT 10SM FEW013 SCT046 OVC070 08/07 A2997 RMK AO2 SLP147 T00780067
Loading
Personal Weather Stations






























Interactive Weather Map New forecast layout! Learn more

10-Day Weather Forecast

Advertisements
Track Severe Weather on mobile